Time;durP1;ratioP1;P1;durP2;ratioP2;P2;SDS_P1;SDS_P2;PMS_P1;PMS_P2;Temp;Humidity;BMP_temperature;BMP_pressure;BME280_temperature;BME280_humidity;BME280_pressure;Samples;Min_cycle;Max_cycle;Signal;HPM_P1;HPM_P2
2021/03/01 05:35:21;;;;;;;13.88;5.97;;;4.60;99.90;;;;;;4935403;29;20310;-83
2021/03/01 05:37:48;;;;;;;8.85;6.03;;;4.70;99.90;;;;;;4961291;28;20308;-82
2021/03/01 05:40:18;;;;;;;7.63;4.32;;;4.70;99.90;;;;;;5058920;28;20207;-82
2021/03/01 05:42:45;;;;;;;10.55;6.32;;;4.80;99.90;;;;;;5058723;28;20204;-80
2021/03/01 05:45:13;;;;;;;9.45;5.07;;;4.80;99.90;;;;;;5058106;28;20192;-79
2021/03/01 05:47:41;;;;;;;11.50;7.03;;;4.90;99.90;;;;;;5060416;28;20245;-83
2021/03/01 05:50:10;;;;;;;12.25;6.82;;;4.80;99.90;;;;;;5081512;28;20234;-81
2021/03/01 05:52:44;;;;;;;9.70;6.22;;;4.90;99.90;;;;;;5065400;28;20231;-81
2021/03/01 05:55:12;;;;;;;11.98;6.95;;;4.90;99.90;;;;;;5064180;28;20318;-81
2021/03/01 05:57:40;;;;;;;15.65;6.63;;;4.80;99.90;;;;;;5083235;28;20237;-82
2021/03/01 06:00:08;;;;;;;13.98;6.82;;;4.80;99.90;;;;;;5060465;28;20213;-82
2021/03/01 06:05:18;;;;;;;12.43;6.03;;;4.80;99.90;;;;;;5050842;28;20196;-83
2021/03/01 06:07:49;;;;;;;7.32;5.60;;;5.00;99.90;;;;;;5056812;28;20306;-83
2021/03/01 06:10:16;;;;;;;16.48;7.68;;;5.10;99.90;;;;;;5041656;28;20223;-82
2021/03/01 06:12:44;;;;;;;11.48;6.60;;;5.20;99.90;;;;;;5041356;28;20561;-82
2021/03/01 06:18:08;;;;;;;15.25;8.18;;;5.20;99.90;;;;;;5066668;28;20234;-81
2021/03/01 06:20:36;;;;;;;14.80;8.13;;;5.10;99.90;;;;;;5068772;28;20286;-82
2021/03/01 06:23:05;;;;;;;14.85;8.82;;;5.10;99.90;;;;;;5078827;28;20667;-82
2021/03/01 06:25:33;;;;;;;17.58;8.15;;;5.10;99.90;;;;;;5075100;28;20201;-84
2021/03/01 06:28:01;;;;;;;15.18;9.52;;;5.00;99.90;;;;;;5066308;28;20309;-81
2021/03/01 06:30:29;;;;;;;19.02;9.85;;;5.00;99.90;;;;;;5065376;28;20220;-82
2021/03/01 06:33:14;;;;;;;17.15;9.88;;;5.00;99.90;;;;;;5065351;28;20229;-82
2021/03/01 06:35:46;;;;;;;17.38;9.63;;;5.00;99.90;;;;;;5053870;28;20195;-81
2021/03/01 06:38:17;;;;;;;19.08;9.43;;;5.10;99.90;;;;;;5066206;28;20239;-82
2021/03/01 06:40:45;;;;;;;18.30;10.27;;;5.10;99.90;;;;;;5049167;28;20709;-82
2021/03/01 06:43:13;;;;;;;12.07;6.88;;;5.10;99.90;;;;;;5066737;28;20223;-82
2021/03/01 06:45:40;;;;;;;16.60;9.98;;;5.00;99.90;;;;;;5064271;28;20259;-81
2021/03/01 06:48:07;;;;;;;19.83;10.93;;;5.10;99.90;;;;;;5075608;28;20222;-85
2021/03/01 06:50:35;;;;;;;25.23;10.93;;;5.00;99.90;;;;;;5068317;28;20345;-84
2021/03/01 06:53:05;;;;;;;17.98;10.30;;;5.10;99.90;;;;;;5073438;28;20243;-80
2021/03/01 06:58:50;;;;;;;17.75;9.85;;;5.20;99.90;;;;;;5064554;28;20219;-82
2021/03/01 07:01:18;;;;;;;17.10;10.88;;;5.30;99.90;;;;;;5065043;28;20231;-84
2021/03/01 07:03:48;;;;;;;23.48;10.23;;;5.30;99.90;;;;;;5066685;28;20214;-82
2021/03/01 07:06:15;;;;;;;20.65;11.73;;;5.40;99.90;;;;;;5068563;28;20195;-81
2021/03/01 07:08:45;;;;;;;20.17;10.32;;;5.40;99.90;;;;;;5069370;28;20258;-83
2021/03/01 07:11:29;;;;;;;21.02;11.02;;;5.50;99.90;;;;;;5084752;28;20229;-83
2021/03/01 07:13:59;;;;;;;21.27;10.82;;;5.50;99.90;;;;;;5065238;28;20222;-82
2021/03/01 07:16:26;;;;;;;21.90;10.75;;;5.50;99.90;;;;;;5064836;28;20203;-82
2021/03/01 07:18:53;;;;;;;17.35;11.20;;;5.50;99.90;;;;;;5059506;28;20238;-83
2021/03/01 07:21:20;;;;;;;18.73;9.93;;;5.60;99.90;;;;;;5060354;28;20204;-82
2021/03/01 07:23:49;;;;;;;21.65;10.90;;;5.60;99.90;;;;;;5072860;28;20219;-82
2021/03/01 07:26:17;;;;;;;17.05;9.93;;;5.70;99.90;;;;;;5066606;28;20203;-82
2021/03/01 07:28:49;;;;;;;14.65;9.00;;;5.70;99.90;;;;;;5060967;28;20223;-83
2021/03/01 07:31:18;;;;;;;19.83;12.75;;;5.70;99.90;;;;;;5065941;28;20196;-84
2021/03/01 07:33:45;;;;;;;20.00;10.45;;;5.70;99.90;;;;;;5061571;28;20231;-82
2021/03/01 07:36:13;;;;;;;18.40;10.55;;;5.70;99.90;;;;;;5064965;28;20225;-85
2021/03/01 07:38:40;;;;;;;17.75;9.43;;;5.70;99.90;;;;;;5067725;28;20296;-83
2021/03/01 07:41:07;;;;;;;19.85;10.98;;;5.70;99.90;;;;;;5081395;28;20215;-83
2021/03/01 07:43:36;;;;;;;17.52;9.70;;;5.80;99.90;;;;;;5072266;28;20219;-80
2021/03/01 07:46:04;;;;;;;20.55;9.60;;;5.90;99.90;;;;;;5065689;28;20208;-82
2021/03/01 07:48:37;;;;;;;24.75;10.40;;;5.90;99.90;;;;;;5067236;28;20230;-83
2021/03/01 07:51:05;;;;;;;13.98;9.10;;;5.90;99.90;;;;;;5065681;28;20265;-83
2021/03/01 07:53:49;;;;;;;15.35;9.23;;;6.00;99.90;;;;;;5066965;28;20207;-81
2021/03/01 07:56:47;;;;;;;16.73;10.30;;;6.10;99.90;;;;;;5070113;28;20203;-82
2021/03/01 07:59:36;;;;;;;13.32;9.45;;;6.10;99.90;;;;;;5071008;28;20203;-85
2021/03/01 08:02:10;;;;;;;19.58;10.57;;;6.00;99.90;;;;;;5067946;28;20211;-82
2021/03/01 08:04:40;;;;;;;17.05;10.65;;;6.20;99.90;;;;;;5074548;28;20643;-83
2021/03/01 08:07:06;;;;;;;18.02;8.75;;;6.60;99.90;;;;;;5076041;28;20689;-83
2021/03/01 08:09:50;;;;;;;16.27;9.60;;;7.00;99.90;;;;;;5064317;28;20246;-85
2021/03/01 08:12:55;;;;;;;14.27;8.68;;;7.50;99.90;;;;;;5073286;28;20195;-87
2021/03/01 08:15:36;;;;;;;14.80;8.35;;;7.60;99.90;;;;;;5070624;28;20185;-85
2021/03/01 08:18:04;;;;;;;12.77;9.00;;;7.40;99.90;;;;;;5069984;28;20230;-83
2021/03/01 08:20:37;;;;;;;13.57;8.65;;;7.50;99.90;;;;;;5065848;28;20212;-81
2021/03/01 08:23:20;;;;;;;15.40;9.18;;;7.40;99.90;;;;;;5065441;28;20224;-83
2021/03/01 08:25:54;;;;;;;15.82;10.13;;;7.50;99.90;;;;;;5065792;28;20193;-83
2021/03/01 08:28:46;;;;;;;11.52;8.65;;;7.80;99.90;;;;;;5061953;28;20264;-83
2021/03/01 08:31:24;;;;;;;16.35;9.40;;;8.00;99.90;;;;;;5070597;28;20206;-83
2021/03/01 08:33:51;;;;;;;14.57;10.32;;;7.80;99.90;;;;;;5071159;28;20206;-83
2021/03/01 08:36:26;;;;;;;13.20;9.90;;;7.70;99.90;;;;;;5073394;28;20198;-86
2021/03/01 08:38:54;;;;;;;13.45;9.38;;;7.80;99.90;;;;;;5056482;28;20229;-80
2021/03/01 08:41:44;;;;;;;15.55;10.00;;;7.80;99.90;;;;;;5069601;28;20210;-83
2021/03/01 08:44:22;;;;;;;16.98;9.93;;;8.00;99.90;;;;;;5068407;28;20210;-83
2021/03/01 08:46:50;;;;;;;15.70;9.50;;;8.10;99.90;;;;;;5070282;28;20202;-83
2021/03/01 08:49:24;;;;;;;16.02;9.20;;;8.10;99.90;;;;;;5072291;28;20223;-81
2021/03/01 08:51:52;;;;;;;18.50;9.50;;;8.10;99.90;;;;;;5060785;28;20205;-83
2021/03/01 08:54:31;;;;;;;12.88;8.57;;;8.10;99.90;;;;;;5074489;28;20203;-82
2021/03/01 08:57:05;;;;;;;18.98;11.65;;;8.30;99.90;;;;;;5066198;28;20226;-84
2021/03/01 08:59:33;;;;;;;12.80;8.35;;;8.40;99.90;;;;;;5077107;28;20209;-84
2021/03/01 09:02:00;;;;;;;14.70;9.65;;;8.70;99.90;;;;;;5071112;28;20230;-83
2021/03/01 09:04:27;;;;;;;12.25;9.65;;;9.00;99.90;;;;;;5074497;28;20203;-83
2021/03/01 09:07:05;;;;;;;13.20;8.77;;;9.10;99.90;;;;;;5067029;28;20212;-82
2021/03/01 09:09:46;;;;;;;13.77;9.80;;;9.60;99.90;;;;;;5067970;28;20237;-82
2021/03/01 09:12:18;;;;;;;16.02;8.65;;;10.60;99.90;;;;;;5073049;28;20211;-85
2021/03/01 09:14:47;;;;;;;17.75;9.55;;;10.80;99.90;;;;;;5066397;28;20215;-84
2021/03/01 09:17:19;;;;;;;17.70;11.25;;;10.70;99.90;;;;;;5070654;28;20239;-84
2021/03/01 09:19:46;;;;;;;16.88;9.40;;;10.90;99.90;;;;;;5069518;28;20200;-82
2021/03/01 09:22:20;;;;;;;13.63;8.80;;;10.90;99.90;;;;;;5088812;28;20263;-81
2021/03/01 09:24:46;;;;;;;14.27;9.93;;;10.90;99.90;;;;;;5073894;28;20230;-82
2021/03/01 09:27:13;;;;;;;11.73;7.75;;;10.60;99.90;;;;;;5076664;28;20215;-81
2021/03/01 09:29:40;;;;;;;13.75;9.60;;;10.50;99.90;;;;;;5072704;28;20223;-83
2021/03/01 09:32:07;;;;;;;12.80;8.70;;;10.50;99.90;;;;;;5069489;28;20241;-83
2021/03/01 09:34:34;;;;;;;15.07;9.88;;;10.50;99.90;;;;;;5078034;28;20203;-83
2021/03/01 09:37:07;;;;;;;15.40;10.45;;;10.40;99.90;;;;;;5077610;28;20242;-81
2021/03/01 09:39:39;;;;;;;12.48;8.82;;;10.20;99.90;;;;;;5067740;28;20222;-82
2021/03/01 09:42:12;;;;;;;13.52;9.25;;;10.70;99.90;;;;;;5076181;28;20212;-82
2021/03/01 09:44:42;;;;;;;13.55;8.30;;;10.80;99.90;;;;;;5065177;28;20226;-80
2021/03/01 09:47:11;;;;;;;13.93;9.80;;;11.00;99.90;;;;;;5080838;28;20234;-81
2021/03/01 09:49:41;;;;;;;15.27;9.50;;;10.90;99.90;;;;;;5073760;28;20283;-80
2021/03/01 09:52:09;;;;;;;14.05;9.93;;;10.90;99.90;;;;;;5070450;28;20217;-82
2021/03/01 09:54:39;;;;;;;21.75;14.00;;;11.50;99.70;;;;;;5066011;28;20196;-83
2021/03/01 09:57:07;;;;;;;13.25;9.35;;;11.80;98.50;;;;;;5071825;28;20217;-87
2021/03/01 09:59:37;;;;;;;16.15;11.05;;;11.80;98.30;;;;;;5076173;28;20188;-83
2021/03/01 10:02:12;;;;;;;14.40;10.65;;;11.60;98.40;;;;;;5068328;28;20264;-83
2021/03/01 10:04:42;;;;;;;16.05;11.35;;;11.90;98.40;;;;;;5072174;28;20226;-85
2021/03/01 10:07:19;;;;;;;15.98;12.13;;;12.90;97.60;;;;;;5074870;28;20352;-83
2021/03/01 10:09:49;;;;;;;18.60;12.90;;;13.50;94.70;;;;;;5068559;28;20239;-83
2021/03/01 10:12:24;;;;;;;19.83;11.52;;;13.00;95.30;;;;;;5078836;28;20321;-80
2021/03/01 10:14:57;;;;;;;15.07;10.73;;;13.00;95.80;;;;;;5073715;28;20190;-83
2021/03/01 10:17:28;;;;;;;14.00;9.30;;;13.50;95.30;;;;;;5079330;28;20235;-85
2021/03/01 10:20:04;;;;;;;15.35;11.20;;;13.60;94.50;;;;;;5076639;28;20196;-85
2021/03/01 10:22:31;;;;;;;16.20;10.02;;;13.70;94.20;;;;;;5073463;28;20674;-84
2021/03/01 10:24:59;;;;;;;14.75;9.88;;;13.20;94.30;;;;;;5078054;28;20198;-85
2021/03/01 10:27:40;;;;;;;13.88;9.25;;;13.20;94.70;;;;;;5076742;28;20219;-82
2021/03/01 17:23:25;;;;;;;22.45;15.57;;;7.80;99.90;;;;;;5075859;28;20209;-85
2021/03/01 17:25:54;;;;;;;26.00;18.25;;;7.80;99.90;;;;;;5079924;28;20206;-87
2021/03/01 17:28:21;;;;;;;26.65;16.83;;;7.80;99.90;;;;;;5074647;28;20233;-85
2021/03/01 17:40:23;;;;;;;30.85;17.25;;;7.50;99.90;;;;;;5068427;28;20192;-82
2021/03/01 17:46:03;;;;;;;27.75;14.55;;;7.20;99.90;;;;;;5029795;28;20197;-82
2021/03/01 17:48:34;;;;;;;25.13;16.20;;;7.10;99.90;;;;;;5030562;28;20232;-82
2021/03/01 17:51:04;;;;;;;27.45;17.90;;;7.10;99.90;;;;;;5056739;28;20236;-81
2021/03/01 17:53:31;;;;;;;28.98;16.95;;;7.10;99.90;;;;;;5072996;28;20190;-82
2021/03/01 17:56:14;;;;;;;29.65;17.50;;;7.10;99.90;;;;;;5074775;28;20262;-82
2021/03/01 17:58:45;;;;;;;26.40;15.85;;;7.00;99.90;;;;;;5073430;28;20217;-82
2021/03/01 18:01:13;;;;;;;28.75;15.48;;;7.00;99.90;;;;;;5077008;28;20239;-82
2021/03/01 18:03:43;;;;;;;31.65;18.67;;;7.10;99.90;;;;;;5081022;28;20191;-81
2021/03/01 18:06:15;;;;;;;26.00;16.10;;;7.10;99.90;;;;;;5075717;28;20281;-82
2021/03/01 18:08:48;;;;;;;23.92;15.38;;;7.10;99.90;;;;;;5072556;28;20224;-81
2021/03/01 18:11:18;;;;;;;25.15;17.27;;;7.10;99.90;;;;;;5071303;28;20233;-81
2021/03/01 18:13:50;;;;;;;20.73;15.52;;;7.10;99.90;;;;;;5065479;28;20179;-80
2021/03/01 18:16:18;;;;;;;30.95;18.63;;;7.10;99.90;;;;;;5082563;28;20238;-85
2021/03/01 18:18:46;;;;;;;28.83;18.55;;;7.10;99.90;;;;;;5059837;28;20511;-85
2021/03/01 18:21:13;;;;;;;30.42;20.05;;;7.00;99.90;;;;;;5074861;28;20262;-84
2021/03/01 18:23:40;;;;;;;29.73;20.95;;;7.00;99.90;;;;;;5076514;28;20220;-84
2021/03/01 18:26:07;;;;;;;27.85;19.80;;;7.00;99.90;;;;;;5083915;28;20207;-87
2021/03/01 18:28:43;;;;;;;29.63;20.42;;;6.90;99.90;;;;;;5063278;28;20296;-86
2021/03/01 18:31:12;;;;;;;31.67;17.48;;;7.00;99.90;;;;;;5075120;28;20297;-82
2021/03/01 18:33:55;;;;;;;29.27;17.75;;;7.00;99.90;;;;;;5078930;28;20592;-84
2021/03/01 18:36:26;;;;;;;26.30;17.75;;;6.90;99.90;;;;;;5070314;28;20223;-86
2021/03/01 18:39:03;;;;;;;29.27;19.85;;;7.00;99.90;;;;;;5071321;28;20239;-85
2021/03/01 18:41:35;;;;;;;27.23;18.60;;;7.00;99.90;;;;;;5065542;28;20200;-84
2021/03/01 18:44:04;;;;;;;31.77;18.23;;;6.90;99.90;;;;;;5073657;28;20201;-83
2021/03/01 18:46:32;;;;;;;26.17;16.45;;;7.00;99.90;;;;;;5067330;28;20264;-86
2021/03/01 18:49:00;;;;;;;24.95;18.23;;;7.00;99.90;;;;;;5067854;28;20221;-82
2021/03/01 18:51:27;;;;;;;28.08;17.95;;;7.00;99.90;;;;;;5072331;28;20230;-81
2021/03/01 18:53:54;;;;;;;26.05;16.20;;;6.90;99.90;;;;;;5066425;28;20185;-84
2021/03/01 18:56:21;;;;;;;23.65;16.85;;;7.00;99.90;;;;;;5053005;28;20200;-83
2021/03/01 18:58:48;;;;;;;27.60;17.60;;;7.00;99.90;;;;;;5063428;28;20297;-85
2021/03/01 19:01:16;;;;;;;22.42;15.57;;;7.00;99.90;;;;;;5069248;28;20208;-85
2021/03/01 19:03:43;;;;;;;32.03;18.65;;;7.00;99.90;;;;;;5061861;28;20207;-84
2021/03/01 19:06:10;;;;;;;26.83;17.00;;;7.00;99.90;;;;;;5064387;28;20203;-85
2021/03/01 19:08:41;;;;;;;26.98;17.95;;;6.90;99.90;;;;;;5072461;28;20271;-85
2021/03/01 19:11:08;;;;;;;27.73;16.33;;;6.90;99.90;;;;;;5066059;28;20221;-85
2021/03/01 19:13:36;;;;;;;22.90;16.38;;;7.00;99.90;;;;;;5063736;28;20198;-86
2021/03/01 19:16:03;;;;;;;33.30;16.95;;;6.90;99.90;;;;;;5064356;28;20235;-86
2021/03/01 19:18:30;;;;;;;25.40;17.08;;;6.90;99.90;;;;;;5064425;28;20224;-83
2021/03/01 19:20:57;;;;;;;30.85;18.33;;;6.90;99.90;;;;;;5070781;28;20205;-83
2021/03/01 19:23:24;;;;;;;26.40;18.30;;;6.90;99.90;;;;;;5061511;28;20214;-83
2021/03/01 19:25:51;;;;;;;31.35;18.77;;;6.90;99.90;;;;;;5069680;28;20206;-86
2021/03/01 19:28:19;;;;;;;29.15;20.65;;;6.90;99.90;;;;;;5074978;28;20246;-87
2021/03/01 19:30:46;;;;;;;29.13;19.70;;;6.90;99.90;;;;;;5079919;28;20224;-85
2021/03/01 20:26:18;;;;;;;32.42;22.42;;;6.40;99.90;;;;;;5061827;28;20257;-85
2021/03/01 20:29:04;;;;;;;36.03;22.88;;;6.50;99.90;;;;;;5016285;28;20209;-83
2021/03/01 20:31:42;;;;;;;36.80;24.38;;;6.40;99.90;;;;;;5053365;28;20219;-85
2021/03/01 20:34:09;;;;;;;44.63;26.08;;;6.50;99.90;;;;;;5044555;28;20212;-84
2021/03/01 20:36:36;;;;;;;44.88;29.02;;;6.50;99.90;;;;;;5050815;28;20197;-86
2021/03/01 20:39:05;;;;;;;44.60;27.40;;;6.40;99.90;;;;;;5060368;28;20215;-87
2021/03/01 20:41:33;;;;;;;57.85;37.83;;;6.20;99.90;;;;;;5050626;28;20208;-87
2021/03/01 20:43:59;;;;;;;49.53;36.10;;;6.40;99.90;;;;;;5059159;28;20220;-87
2021/03/01 20:46:26;;;;;;;52.17;30.73;;;6.40;99.90;;;;;;5060532;28;20204;-84
2021/03/01 20:48:52;;;;;;;68.00;38.17;;;6.30;99.90;;;;;;5056135;28;20228;-83
2021/03/01 20:51:19;;;;;;;47.97;33.97;;;6.30;99.90;;;;;;5055347;28;20211;-85
2021/03/01 20:53:46;;;;;;;49.20;32.92;;;6.20;99.90;;;;;;5057278;28;20200;-84
2021/03/01 20:56:12;;;;;;;41.35;28.73;;;6.20;99.90;;;;;;5048787;28;20207;-83
2021/03/01 20:58:40;;;;;;;49.08;30.60;;;6.20;99.90;;;;;;5042436;28;20229;-85
2021/03/01 21:01:07;;;;;;;57.42;34.90;;;6.20;99.90;;;;;;5044594;28;20273;-85
2021/03/01 21:03:38;;;;;;;78.10;40.05;;;6.20;99.90;;;;;;5047664;28;20208;-84
2021/03/01 21:06:07;;;;;;;64.05;41.55;;;6.20;99.90;;;;;;5045329;28;20201;-83
2021/03/01 21:08:34;;;;;;;57.92;34.38;;;6.10;99.90;;;;;;5046268;28;20226;-85
2021/03/01 21:11:02;;;;;;;46.13;29.33;;;6.10;99.90;;;;;;5055548;28;20223;-84
2021/03/01 21:13:28;;;;;;;42.88;29.50;;;6.10;99.90;;;;;;5053480;28;20262;-83
2021/03/01 21:15:56;;;;;;;36.83;24.48;;;6.10;99.90;;;;;;5060343;28;20208;-83
2021/03/01 21:18:24;;;;;;;37.20;23.75;;;6.10;99.90;;;;;;5062431;28;20251;-83
2021/03/01 21:20:51;;;;;;;33.08;23.35;;;6.10;99.90;;;;;;5062148;28;20207;-82
2021/03/01 21:23:22;;;;;;;33.17;21.05;;;6.00;99.90;;;;;;5068874;28;20197;-81
2021/03/01 21:25:52;;;;;;;33.47;20.92;;;6.00;99.90;;;;;;5064074;28;20238;-83
2021/03/01 21:28:22;;;;;;;32.90;21.92;;;6.00;99.90;;;;;;5056462;28;20220;-82
2021/03/01 21:30:49;;;;;;;37.70;20.40;;;6.00;99.90;;;;;;5050931;28;20204;-82
2021/03/01 21:33:17;;;;;;;39.08;24.02;;;6.00;99.90;;;;;;5057415;28;20197;-86
2021/03/01 21:35:45;;;;;;;35.00;23.40;;;5.90;99.90;;;;;;5052934;28;20283;-85
2021/03/01 21:38:13;;;;;;;34.00;23.15;;;5.80;99.90;;;;;;5057989;28;20227;-84
2021/03/01 21:40:40;;;;;;;31.67;20.52;;;5.80;99.90;;;;;;5044096;28;20208;-84
2021/03/01 21:43:06;;;;;;;34.78;22.60;;;5.70;99.90;;;;;;5051187;28;20272;-86
2021/03/01 21:45:33;;;;;;;34.35;23.17;;;5.70;99.90;;;;;;5053353;28;20204;-85
2021/03/01 21:48:04;;;;;;;30.58;22.48;;;5.60;99.90;;;;;;5051680;28;20262;-81
2021/03/01 21:50:32;;;;;;;25.92;18.13;;;5.60;99.90;;;;;;5049601;28;20292;-81
2021/03/01 21:53:03;;;;;;;23.23;18.45;;;5.50;99.90;;;;;;5057722;28;20196;-81
2021/03/01 21:55:30;;;;;;;30.92;20.65;;;5.50;99.90;;;;;;5046878;28;20215;-82
2021/03/01 21:57:59;;;;;;;25.35;18.75;;;5.40;99.90;;;;;;5051412;28;20235;-80
2021/03/01 22:00:26;;;;;;;31.05;23.60;;;5.30;99.90;;;;;;5042747;28;20203;-79
2021/03/01 22:02:59;;;;;;;29.92;22.98;;;5.30;99.90;;;;;;5039800;28;20216;-81
2021/03/01 22:05:26;;;;;;;26.98;20.95;;;5.20;99.90;;;;;;5044476;28;20201;-80
2021/03/01 22:07:54;;;;;;;28.30;19.73;;;5.10;99.90;;;;;;5044912;28;20701;-79
2021/03/01 22:10:22;;;;;;;36.00;22.45;;;5.10;99.90;;;;;;5044422;28;20218;-81
2021/03/01 22:12:50;;;;;;;32.13;21.88;;;4.90;99.90;;;;;;5044304;28;20220;-81
2021/03/01 22:15:18;;;;;;;26.65;18.77;;;4.80;99.90;;;;;;5045279;28;20199;-80
2021/03/01 22:17:45;;;;;;;24.35;17.40;;;4.70;99.90;;;;;;5052931;28;20218;-82
2021/03/01 22:20:14;;;;;;;31.25;19.98;;;4.70;99.90;;;;;;5045880;28;20588;-80
2021/03/01 22:22:41;;;;;;;34.03;21.90;;;4.70;99.90;;;;;;5043736;28;20196;-80
2021/03/01 22:25:12;;;;;;;29.58;21.70;;;4.60;99.90;;;;;;5038473;28;20212;-80
2021/03/01 22:27:47;;;;;;;27.70;20.45;;;4.50;99.90;;;;;;5038332;28;20215;-80
2021/03/01 22:30:17;;;;;;;29.15;21.83;;;4.50;99.90;;;;;;5040055;28;21735;-80
2021/03/01 22:32:54;;;;;;;25.20;17.92;;;4.50;99.90;;;;;;5044981;28;20218;-81
2021/03/01 22:35:24;;;;;;;24.50;17.40;;;4.50;99.90;;;;;;5043570;28;20391;-81
2021/03/01 22:37:52;;;;;;;24.20;18.00;;;4.50;99.90;;;;;;5044237;28;20220;-81
2021/03/01 22:40:23;;;;;;;27.25;20.27;;;4.50;99.90;;;;;;5045530;28;20205;-79
2021/03/01 22:42:53;;;;;;;21.33;17.83;;;4.50;99.90;;;;;;5044325;28;20233;-80
2021/03/01 22:45:22;;;;;;;21.75;17.30;;;4.50;99.90;;;;;;5037334;28;20583;-80
2021/03/01 22:47:53;;;;;;;25.17;17.65;;;4.40;99.90;;;;;;5044597;28;20704;-80
2021/03/01 22:50:32;;;;;;;28.90;20.20;;;4.40;99.90;;;;;;5039954;28;20219;-83
2021/03/01 22:53:02;;;;;;;26.17;18.77;;;4.30;99.90;;;;;;5043009;28;20209;-80
2021/03/01 22:55:31;;;;;;;28.90;17.95;;;4.20;99.90;;;;;;5035665;28;20291;-80
2021/03/01 22:58:03;;;;;;;27.98;18.88;;;4.20;99.90;;;;;;5048467;28;20228;-80
2021/03/01 23:00:31;;;;;;;32.03;21.27;;;4.10;99.90;;;;;;5039975;28;20219;-79
2021/03/01 23:02:58;;;;;;;30.80;19.55;;;4.10;99.90;;;;;;5039789;28;20219;-80
2021/03/01 23:05:24;;;;;;;27.27;17.48;;;4.00;99.90;;;;;;5046885;28;20551;-81
2021/03/01 23:07:51;;;;;;;25.85;18.33;;;4.00;99.90;;;;;;5044032;28;20220;-81
2021/03/01 23:10:19;;;;;;;24.73;18.13;;;4.00;99.90;;;;;;5052731;28;20224;-82
2021/03/01 23:12:48;;;;;;;23.90;17.88;;;4.00;99.90;;;;;;5042885;28;20195;-80
2021/03/01 23:15:15;;;;;;;24.00;15.02;;;4.00;99.90;;;;;;5050790;28;20208;-81
2021/03/01 23:17:42;;;;;;;24.63;19.08;;;4.00;99.90;;;;;;5062166;28;20235;-81
2021/03/01 23:20:12;;;;;;;29.90;17.45;;;4.00;99.90;;;;;;5051233;28;20201;-81
2021/03/01 23:22:38;;;;;;;25.20;17.52;;;4.00;99.90;;;;;;5047798;28;20199;-80
2021/03/01 23:25:06;;;;;;;22.88;18.23;;;4.00;99.90;;;;;;5043607;28;20215;-81
2021/03/01 23:27:33;;;;;;;24.10;19.65;;;3.90;99.90;;;;;;5053076;28;20215;-79
2021/03/01 23:30:00;;;;;;;26.83;17.00;;;3.80;99.90;;;;;;5046598;28;20211;-81
2021/03/01 23:32:28;;;;;;;28.35;19.90;;;3.80;99.90;;;;;;5053753;28;20206;-80
2021/03/01 23:34:54;;;;;;;38.50;21.83;;;3.80;99.90;;;;;;5047684;28;20237;-80
2021/03/01 23:37:22;;;;;;;23.15;17.00;;;3.80;99.90;;;;;;5045332;28;20754;-81
2021/03/01 23:39:50;;;;;;;31.08;20.10;;;3.80;99.90;;;;;;5053341;28;20202;-81
2021/03/01 23:42:18;;;;;;;29.42;19.85;;;3.80;99.90;;;;;;5047909;28;20200;-81
2021/03/01 23:44:46;;;;;;;29.45;20.00;;;3.70;99.90;;;;;;5041120;28;20196;-82
2021/03/01 23:47:16;;;;;;;31.27;22.23;;;3.80;99.90;;;;;;5048124;28;20224;-80
2021/03/01 23:49:47;;;;;;;29.25;19.83;;;3.70;99.90;;;;;;5048928;28;20204;-81
2021/03/01 23:52:15;;;;;;;32.42;20.13;;;3.60;99.90;;;;;;5043907;28;20206;-80
2021/03/01 23:54:42;;;;;;;25.63;18.80;;;3.60;99.90;;;;;;5044598;28;20207;-80
2021/03/01 23:57:09;;;;;;;31.08;20.92;;;3.50;99.90;;;;;;5053105;28;20219;-80
2021/03/01 23:59:37;;;;;;;24.83;18.10;;;3.50;99.90;;;;;;5041790;28;20201;-81
